createdAt,value
2019-05-25T00:02:21.146Z,5.53
2019-05-25T00:04:48.094Z,3.97
2019-05-25T00:07:14.710Z,3.83
2019-05-25T00:09:42.359Z,4.73
2019-05-25T00:12:08.967Z,4.00
2019-05-25T00:14:35.972Z,4.50
2019-05-25T00:17:03.227Z,4.33
2019-05-25T00:19:31.215Z,5.20
2019-05-25T00:22:00.904Z,3.77
2019-05-25T00:24:27.879Z,3.77
2019-05-25T00:26:56.739Z,3.87
2019-05-25T00:29:25.527Z,4.50
2019-05-25T00:31:52.731Z,4.40
2019-05-25T00:34:19.747Z,4.20
2019-05-25T00:36:46.580Z,3.80
2019-05-25T00:39:13.295Z,4.03
2019-05-25T00:41:40.684Z,5.00
2019-05-25T00:44:07.609Z,4.10
2019-05-25T00:46:34.551Z,4.30
2019-05-25T00:49:01.804Z,4.37
2019-05-25T00:51:28.951Z,4.47
2019-05-25T00:53:56.716Z,4.37
2019-05-25T00:56:24.372Z,6.70
2019-05-25T00:58:51.335Z,4.10
2019-05-25T01:01:17.947Z,4.63
2019-05-25T01:03:45.231Z,4.93
2019-05-25T01:06:12.494Z,4.30
2019-05-25T01:08:39.439Z,4.97
2019-05-25T01:11:06.483Z,4.73
2019-05-25T01:13:34.307Z,3.63
2019-05-25T01:16:01.271Z,5.40
2019-05-25T01:18:28.627Z,3.93
2019-05-25T01:20:55.571Z,4.80
2019-05-25T01:23:22.824Z,5.30
2019-05-25T01:25:49.497Z,5.33
2019-05-25T01:28:17.375Z,4.23
2019-05-25T01:30:43.999Z,4.70
2019-05-25T01:33:10.624Z,5.00
2019-05-25T01:35:37.847Z,4.33
2019-05-25T01:38:04.563Z,5.00
2019-05-25T01:40:31.687Z,4.83
2019-05-25T01:42:58.987Z,4.90
2019-05-25T01:45:25.620Z,5.07
2019-05-25T01:47:52.780Z,5.47
2019-05-25T01:50:19.831Z,5.57
2019-05-25T01:52:46.774Z,4.13
2019-05-25T01:55:13.898Z,3.60
2019-05-25T01:57:40.907Z,4.37
2019-05-25T02:00:08.480Z,5.07
2019-05-25T02:02:36.038Z,4.13
2019-05-25T02:05:03.337Z,4.93
2019-05-25T02:07:32.864Z,3.90
2019-05-25T02:10:00.047Z,3.80
2019-05-25T02:12:27.256Z,4.27
2019-05-25T02:14:53.891Z,3.23
2019-05-25T02:17:21.261Z,3.73
2019-05-25T02:19:49.335Z,4.17
2019-05-25T02:22:16.055Z,4.67
2019-05-25T02:24:43.243Z,5.20
2019-05-25T02:27:10.152Z,4.63
2019-05-25T02:29:37.562Z,3.63
2019-05-25T02:32:05.372Z,4.87
2019-05-25T02:34:32.991Z,3.77
2019-05-25T02:36:59.614Z,3.90
2019-05-25T02:39:26.263Z,3.80
2019-05-25T02:41:53.836Z,4.10
2019-05-25T02:44:20.483Z,4.63
2019-05-25T02:46:49.192Z,3.60
2019-05-25T02:49:15.870Z,3.97
2019-05-25T02:51:42.518Z,4.23
2019-05-25T02:54:10.132Z,4.17
2019-05-25T02:56:37.079Z,4.60
2019-05-25T02:59:05.951Z,3.50
2019-05-25T03:01:32.619Z,4.40
2019-05-25T03:03:59.751Z,4.17
2019-05-25T03:06:26.772Z,3.73
2019-05-25T03:08:56.043Z,3.60
2019-05-25T03:11:22.978Z,3.83
2019-05-25T03:13:50.087Z,3.73
2019-05-25T03:16:17.179Z,3.93
2019-05-25T03:18:44.237Z,4.60
2019-05-25T03:21:11.339Z,3.50
2019-05-25T03:23:38.526Z,3.80
2019-05-25T03:26:05.244Z,3.43
2019-05-25T03:28:32.266Z,3.50
2019-05-25T03:31:00.076Z,3.10
2019-05-25T03:33:27.096Z,4.07
2019-05-25T03:35:54.128Z,2.97
2019-05-25T03:38:21.374Z,2.80
2019-05-25T03:40:48.320Z,3.30
2019-05-25T03:43:14.940Z,3.13
2019-05-25T03:45:41.599Z,3.10
2019-05-25T03:48:08.567Z,2.50
2019-05-25T03:50:36.731Z,3.10
2019-05-25T03:53:03.376Z,3.30
2019-05-25T03:55:32.371Z,2.63
2019-05-25T03:57:59.403Z,5.57
2019-05-25T04:00:32.995Z,2.27
2019-05-25T04:02:59.730Z,2.77
2019-05-25T04:05:28.547Z,2.80
2019-05-25T04:07:55.179Z,3.30
2019-05-25T04:10:23.647Z,3.00
2019-05-25T04:12:50.379Z,4.03
2019-05-25T04:15:18.600Z,3.10
2019-05-25T04:17:45.330Z,3.10
2019-05-25T04:20:13.267Z,3.70
2019-05-25T04:22:40.629Z,2.83
2019-05-25T04:25:07.263Z,3.10
2019-05-25T04:27:34.640Z,3.87
2019-05-25T04:30:01.569Z,2.90
2019-05-25T04:32:28.937Z,2.90
2019-05-25T04:34:56.267Z,3.23
2019-05-25T04:37:23.515Z,3.57
2019-05-25T04:39:50.770Z,2.90
2019-05-25T04:42:17.711Z,2.77
2019-05-25T04:44:44.340Z,2.83
2019-05-25T04:47:24.347Z,3.00
2019-05-25T04:49:39.520Z,2.60
2019-05-25T04:52:06.571Z,3.00
2019-05-25T04:54:33.770Z,3.50
2019-05-25T04:57:00.442Z,2.50
2019-05-25T04:59:27.074Z,2.97
2019-05-25T05:01:55.523Z,3.17
2019-05-25T05:04:22.261Z,2.77
2019-05-25T05:06:50.435Z,2.53
2019-05-25T05:09:17.127Z,2.83
2019-05-25T05:11:43.779Z,2.40
2019-05-25T05:14:10.728Z,2.37
2019-05-25T05:16:37.398Z,2.07
2019-05-25T05:19:04.751Z,2.57
2019-05-25T05:21:31.403Z,2.77
2019-05-25T05:23:58.728Z,2.63
2019-05-25T05:26:26.847Z,1.87
2019-05-25T05:28:53.795Z,2.23
2019-05-25T05:31:23.839Z,2.00
2019-05-25T05:33:51.059Z,2.17
2019-05-25T05:36:18.639Z,3.13
2019-05-25T05:38:45.483Z,1.90
2019-05-25T05:41:14.982Z,2.33
2019-05-25T05:43:43.503Z,2.57
2019-05-25T05:46:12.060Z,2.40
2019-05-25T05:48:39.320Z,2.90
2019-05-25T05:51:07.339Z,2.10
2019-05-25T05:53:36.175Z,2.97
2019-05-25T05:56:02.819Z,2.23
2019-05-25T05:58:29.889Z,2.57
2019-05-25T06:00:56.586Z,2.10
2019-05-25T06:03:23.229Z,2.37
2019-05-25T06:05:49.871Z,3.63
2019-05-25T06:08:17.115Z,2.60
2019-05-25T06:10:45.854Z,2.40
2019-05-25T06:13:12.530Z,2.70
2019-05-25T06:15:40.612Z,2.87
2019-05-25T06:18:07.270Z,2.53
2019-05-25T06:20:34.307Z,2.50
2019-05-25T06:23:02.118Z,2.50
2019-05-25T06:25:29.063Z,2.37
2019-05-25T06:27:56.002Z,2.50
2019-05-25T06:30:24.158Z,2.10
2019-05-25T06:32:52.246Z,2.50
2019-05-25T06:35:19.873Z,2.67
2019-05-25T06:37:47.054Z,2.00
2019-05-25T06:40:14.014Z,2.90
2019-05-25T06:42:40.671Z,2.40
2019-05-25T06:45:07.738Z,2.63
2019-05-25T06:47:34.767Z,2.87
2019-05-25T06:50:01.719Z,2.27
2019-05-25T06:52:30.013Z,2.80
2019-05-25T06:54:57.843Z,2.40
2019-05-25T06:57:24.587Z,2.20
2019-05-25T06:59:51.247Z,2.37
2019-05-25T07:02:22.487Z,2.77
2019-05-25T07:04:48.199Z,3.30
2019-05-25T07:07:14.967Z,2.47
2019-05-25T07:09:41.879Z,2.50
2019-05-25T07:12:08.606Z,2.10
2019-05-25T07:14:36.717Z,2.37
2019-05-25T07:17:03.353Z,2.87
2019-05-25T07:19:31.482Z,2.50
2019-05-25T07:21:58.256Z,2.13
2019-05-25T07:24:25.211Z,2.27
2019-05-25T07:26:51.850Z,2.30
2019-05-25T07:29:19.091Z,3.20
2019-05-25T07:31:46.403Z,2.90
2019-05-25T07:34:13.080Z,3.77
2019-05-25T07:36:39.786Z,2.33
2019-05-25T07:39:06.419Z,3.13
2019-05-25T07:41:33.462Z,3.27
2019-05-25T07:44:00.470Z,2.67
2019-05-25T07:46:28.996Z,2.87
2019-05-25T07:48:56.039Z,3.03
2019-05-25T07:51:23.079Z,2.47
2019-05-25T07:53:50.059Z,4.67
2019-05-25T07:56:17.904Z,3.03
2019-05-25T07:58:44.682Z,3.50
2019-05-25T08:01:11.323Z,4.03
2019-05-25T08:03:39.882Z,2.73
2019-05-25T08:06:07.430Z,3.67
2019-05-25T08:08:34.059Z,3.03
2019-05-25T08:11:01.793Z,3.20
2019-05-25T08:13:28.456Z,2.67
2019-05-25T08:15:56.427Z,3.43
2019-05-25T08:18:23.084Z,2.77
2019-05-25T08:20:50.928Z,2.77
2019-05-25T08:23:17.899Z,3.43
2019-05-25T08:25:45.511Z,2.80
2019-05-25T08:28:12.731Z,3.10
2019-05-25T08:30:39.402Z,2.77
2019-05-25T08:33:06.136Z,3.50
2019-05-25T08:35:33.525Z,2.40
2019-05-25T08:38:00.291Z,2.70
2019-05-25T08:40:27.350Z,2.80
2019-05-25T08:42:54.196Z,3.20
2019-05-25T08:45:20.935Z,3.37
2019-05-25T08:47:47.580Z,2.90
2019-05-25T08:50:16.529Z,2.93
2019-05-25T08:52:43.469Z,3.50
2019-05-25T08:55:10.207Z,2.27
2019-05-25T08:57:37.250Z,3.23
2019-05-25T09:00:04.583Z,2.70
2019-05-25T09:02:32.367Z,2.90
2019-05-25T09:04:59.315Z,2.77
2019-05-25T09:07:26.258Z,2.67
2019-05-25T09:09:57.524Z,3.00
2019-05-25T09:12:24.279Z,3.40
2019-05-25T09:14:51.360Z,3.47
2019-05-25T09:17:18.027Z,3.60
2019-05-25T09:19:45.026Z,3.23
2019-05-25T09:22:11.643Z,3.60
2019-05-25T09:24:38.391Z,2.70
2019-05-25T09:27:05.475Z,2.70
2019-05-25T09:29:32.271Z,2.73
2019-05-25T09:32:00.020Z,2.83
2019-05-25T09:34:28.702Z,2.43
2019-05-25T09:36:55.666Z,2.80
2019-05-25T09:39:22.921Z,2.67
2019-05-25T09:41:50.086Z,3.57
2019-05-25T09:44:17.492Z,2.97
2019-05-25T09:46:44.119Z,2.87
2019-05-25T09:49:11.043Z,3.37
2019-05-25T09:51:38.134Z,2.27
2019-05-25T09:54:04.759Z,3.03
2019-05-25T09:56:31.559Z,2.70
2019-05-25T09:58:59.027Z,3.33
2019-05-25T10:01:26.039Z,2.93
2019-05-25T10:03:56.446Z,3.07
2019-05-25T10:06:22.075Z,3.10
2019-05-25T10:08:50.853Z,2.63
2019-05-25T10:11:18.044Z,3.63
2019-05-25T10:13:44.687Z,3.37
2019-05-25T10:16:11.680Z,3.70
2019-05-25T10:18:38.456Z,3.33
2019-05-25T10:21:05.700Z,3.10
2019-05-25T10:23:32.737Z,3.30
2019-05-25T10:25:59.790Z,3.43
2019-05-25T10:28:26.651Z,2.97
2019-05-25T10:30:53.279Z,3.03
2019-05-25T10:33:21.834Z,2.90
2019-05-25T10:35:48.566Z,3.33
2019-05-25T10:38:15.571Z,3.70
2019-05-25T10:40:42.758Z,3.10
2019-05-25T10:43:09.399Z,3.00
2019-05-25T10:45:36.859Z,3.90
2019-05-25T10:48:03.559Z,4.70
2019-05-25T10:50:30.321Z,4.00
2019-05-25T10:52:57.407Z,3.83
2019-05-25T10:55:24.343Z,4.10
2019-05-25T10:57:51.275Z,3.80
2019-05-25T11:00:19.371Z,3.30
2019-05-25T11:02:46.905Z,3.83
2019-05-25T11:05:14.359Z,3.37
2019-05-25T11:07:42.351Z,4.10
2019-05-25T11:10:09.588Z,3.47
2019-05-25T11:12:37.342Z,3.10
2019-05-25T11:15:04.039Z,3.10
2019-05-25T11:17:31.537Z,3.23
2019-05-25T11:19:58.792Z,3.63
2019-05-25T11:22:26.279Z,4.63
2019-05-25T11:24:55.496Z,3.80
2019-05-25T11:27:22.263Z,2.73
2019-05-25T11:29:49.237Z,3.30
2019-05-25T11:32:16.787Z,3.60
2019-05-25T11:34:44.887Z,3.73
2019-05-25T11:37:15.545Z,3.60
2019-05-25T11:39:41.819Z,2.93
2019-05-25T11:42:09.484Z,3.10
2019-05-25T11:44:36.840Z,3.40
2019-05-25T11:47:04.138Z,3.13
2019-05-25T11:49:31.303Z,3.43
2019-05-25T11:51:58.288Z,4.30
2019-05-25T11:54:25.923Z,2.63
2019-05-25T11:56:52.675Z,2.77
2019-05-25T11:59:19.633Z,3.10
2019-05-25T12:01:47.303Z,3.93
2019-05-25T12:04:13.979Z,4.77
2019-05-25T12:06:41.030Z,2.57
2019-05-25T12:09:09.055Z,3.97
2019-05-25T12:11:36.172Z,4.10
2019-05-25T12:14:02.800Z,4.07
2019-05-25T12:16:31.605Z,3.90
2019-05-25T12:18:59.092Z,3.10
2019-05-25T12:21:27.987Z,2.93
2019-05-25T12:23:54.915Z,3.50
2019-05-25T12:26:22.023Z,3.47
2019-05-25T12:28:49.320Z,3.00
2019-05-25T12:31:17.914Z,2.60
2019-05-25T12:33:44.923Z,3.20
2019-05-25T12:36:12.020Z,2.27
2019-05-25T12:38:39.020Z,3.23
2019-05-25T12:41:05.807Z,5.10
2019-05-25T12:43:33.439Z,2.67
2019-05-25T12:46:00.395Z,3.70
2019-05-25T12:48:27.286Z,5.17
2019-05-25T12:50:54.619Z,4.00
2019-05-25T12:53:22.135Z,2.80
2019-05-25T12:55:49.886Z,3.03
2019-05-25T12:58:16.628Z,3.83
2019-05-25T13:00:55.194Z,4.27
2019-05-25T13:03:12.691Z,3.00
2019-05-25T13:05:39.349Z,4.90
2019-05-25T13:08:05.973Z,3.30
2019-05-25T13:10:33.243Z,3.70
2019-05-25T13:13:02.239Z,3.53
2019-05-25T13:15:29.007Z,4.80
2019-05-25T13:18:00.032Z,3.40
2019-05-25T13:20:26.691Z,3.50
2019-05-25T13:22:55.015Z,3.90
2019-05-25T13:25:22.004Z,3.73
2019-05-25T13:27:50.162Z,3.37
2019-05-25T13:30:17.066Z,3.90
2019-05-25T13:32:43.807Z,3.60
2019-05-25T13:35:10.912Z,3.50
2019-05-25T13:37:42.212Z,4.23
2019-05-25T13:40:47.356Z,5.00
2019-05-25T13:43:15.328Z,3.90
2019-05-25T13:45:41.925Z,4.30
2019-05-25T13:48:10.746Z,4.20
2019-05-25T13:50:38.194Z,6.40
2019-05-25T13:53:04.926Z,4.50
2019-05-25T13:55:31.883Z,4.23
2019-05-25T13:57:58.636Z,4.50
2019-05-25T14:00:25.391Z,5.33
2019-05-25T14:02:52.215Z,4.00
2019-05-25T14:05:18.884Z,4.43
2019-05-25T14:07:45.547Z,3.80
2019-05-25T14:10:12.194Z,4.43
2019-05-25T14:12:39.691Z,4.10
2019-05-25T14:15:07.379Z,4.73
2019-05-25T14:17:34.103Z,3.93
2019-05-25T14:20:00.719Z,3.63
2019-05-25T14:22:27.370Z,6.60
2019-05-25T14:24:54.007Z,4.37
2019-05-25T14:27:21.906Z,3.50
2019-05-25T14:29:48.927Z,3.40
2019-05-25T14:32:15.564Z,4.80
2019-05-25T14:34:45.079Z,3.93
2019-05-25T14:37:12.094Z,4.10
2019-05-25T14:39:38.713Z,3.00
2019-05-25T14:42:05.691Z,3.10
2019-05-25T14:44:32.859Z,3.53
2019-05-25T14:46:59.784Z,3.23
2019-05-25T14:49:27.019Z,3.50
2019-05-25T14:51:53.651Z,3.60
2019-05-25T14:54:20.657Z,3.30
2019-05-25T14:56:47.414Z,3.08
2019-05-25T14:59:14.393Z,2.83
2019-05-25T15:01:41.159Z,3.50
2019-05-25T15:04:07.819Z,3.57
2019-05-25T15:06:35.500Z,3.40
2019-05-25T15:09:02.153Z,2.90
2019-05-25T15:11:29.792Z,3.73
2019-05-25T15:13:56.417Z,2.93
2019-05-25T15:16:23.087Z,2.67
2019-05-25T15:18:49.752Z,2.93
2019-05-25T15:21:16.395Z,3.40
2019-05-25T15:23:43.036Z,4.03
2019-05-25T15:26:10.126Z,3.10
2019-05-25T15:28:36.748Z,3.80
2019-05-25T15:31:03.397Z,3.47
2019-05-25T15:33:31.851Z,2.80
2019-05-25T15:35:58.571Z,3.27
2019-05-25T15:38:25.245Z,3.00
2019-05-25T15:40:51.897Z,3.10
2019-05-25T15:43:18.551Z,2.57
2019-05-25T15:45:45.188Z,2.60
2019-05-25T15:48:13.658Z,2.77
2019-05-25T15:50:40.776Z,2.87
2019-05-25T15:53:07.415Z,2.60
2019-05-25T15:55:34.887Z,2.60
2019-05-25T15:58:01.508Z,2.67
2019-05-25T16:00:45.809Z,3.00
2019-05-25T16:03:12.480Z,2.57
2019-05-25T16:05:40.852Z,2.60
2019-05-25T16:08:08.019Z,2.53
2019-05-25T16:10:35.153Z,2.27
2019-05-25T16:13:02.133Z,3.43
2019-05-25T16:15:28.985Z,2.40
2019-05-25T16:17:56.093Z,2.80
2019-05-25T16:20:23.445Z,2.33
2019-05-25T16:22:50.224Z,2.80
2019-05-25T16:25:17.142Z,2.57
2019-05-25T16:27:43.980Z,2.10
2019-05-25T16:30:10.996Z,2.50
2019-05-25T16:33:09.986Z,2.60
2019-05-25T16:35:07.153Z,2.70
2019-05-25T16:37:34.053Z,2.70
2019-05-25T16:40:01.024Z,2.20
2019-05-25T16:42:28.037Z,2.90
2019-05-25T16:44:55.427Z,2.73
2019-05-25T16:47:22.195Z,3.10
2019-05-25T16:49:49.092Z,2.40
2019-05-25T16:52:19.952Z,2.70
2019-05-25T16:54:46.720Z,3.10
2019-05-25T16:57:13.710Z,2.63
2019-05-25T16:59:42.787Z,1.90
2019-05-25T17:02:09.796Z,2.43
2019-05-25T17:04:36.642Z,2.03
2019-05-25T17:07:03.303Z,2.20
2019-05-25T17:09:30.006Z,2.23
2019-05-25T17:11:56.791Z,2.23
2019-05-25T17:14:23.453Z,2.30
2019-05-25T17:16:50.562Z,2.50
2019-05-25T17:19:20.759Z,1.80
2019-05-25T17:21:47.375Z,2.97
2019-05-25T17:24:15.359Z,3.00
2019-05-25T17:26:42.843Z,2.27
2019-05-25T17:29:09.678Z,2.60
2019-05-25T17:31:36.304Z,2.40
2019-05-25T17:34:04.332Z,2.40
2019-05-25T17:36:31.930Z,2.60
2019-05-25T17:38:59.089Z,2.67
2019-05-25T17:41:25.867Z,2.27
2019-05-25T17:43:52.514Z,3.57
2019-05-25T17:46:20.054Z,3.47
2019-05-25T17:48:47.407Z,4.20
2019-05-25T17:51:14.391Z,2.80
2019-05-25T17:53:42.781Z,3.07
2019-05-25T17:56:11.974Z,2.57
2019-05-25T17:58:38.599Z,3.00
2019-05-25T18:01:05.250Z,2.90
2019-05-25T18:03:32.371Z,2.23
2019-05-25T18:05:59.431Z,2.30
2019-05-25T18:08:26.392Z,2.77
2019-05-25T18:10:54.761Z,2.57
2019-05-25T18:13:21.694Z,2.30
2019-05-25T18:15:48.590Z,2.90
2019-05-25T18:18:15.278Z,2.40
2019-05-25T18:20:42.170Z,2.53
2019-05-25T18:23:09.512Z,3.00
2019-05-25T18:25:37.296Z,2.17
2019-05-25T18:28:05.020Z,3.70
2019-05-25T18:30:33.210Z,2.30
2019-05-25T18:32:59.931Z,2.83
2019-05-25T18:35:26.623Z,2.13
2019-05-25T18:37:54.374Z,1.77
2019-05-25T18:40:21.192Z,2.23
2019-05-25T18:42:49.351Z,2.83
2019-05-25T18:45:16.580Z,2.23
2019-05-25T18:47:44.240Z,2.60
2019-05-25T18:50:12.115Z,2.23
2019-05-25T18:52:38.956Z,2.60
2019-05-25T18:55:06.282Z,2.03
2019-05-25T18:57:32.987Z,2.17
2019-05-25T18:59:59.991Z,2.40
2019-05-25T19:02:26.631Z,2.30
2019-05-25T19:04:59.502Z,2.20
2019-05-25T19:07:22.053Z,2.60
2019-05-25T19:09:49.356Z,3.40
2019-05-25T19:12:16.299Z,2.47
2019-05-25T19:14:43.279Z,3.17
2019-05-25T19:17:10.187Z,2.63
2019-05-25T19:19:36.815Z,2.40
2019-05-25T19:22:03.928Z,2.83
2019-05-25T19:24:30.927Z,2.07
2019-05-25T19:26:59.008Z,2.40
2019-05-25T19:29:28.092Z,2.83
2019-05-25T19:31:55.078Z,2.67
2019-05-25T19:34:23.607Z,2.83
2019-05-25T19:36:51.178Z,3.00
2019-05-25T19:39:18.256Z,3.07
2019-05-25T19:41:44.959Z,2.07
2019-05-25T19:44:11.720Z,2.80
2019-05-25T19:46:38.455Z,2.37
2019-05-25T19:49:05.094Z,2.90
2019-05-25T19:51:31.875Z,2.67
2019-05-25T19:53:58.868Z,2.87
2019-05-25T19:56:25.608Z,2.53
2019-05-25T19:58:52.399Z,2.80
2019-05-25T20:01:20.140Z,2.97
2019-05-25T20:03:46.791Z,2.90
2019-05-25T20:06:13.461Z,3.03
2019-05-25T20:08:40.087Z,3.17
2019-05-25T20:11:06.726Z,2.87
2019-05-25T20:13:33.416Z,2.90
2019-05-25T20:16:00.479Z,2.77
2019-05-25T20:18:27.136Z,3.30
2019-05-25T20:20:53.908Z,3.33
2019-05-25T20:23:21.020Z,3.53
2019-05-25T20:25:47.741Z,2.90
2019-05-25T20:28:14.508Z,3.13
2019-05-25T20:30:41.680Z,3.20
2019-05-25T20:33:09.924Z,2.93
2019-05-25T20:35:36.963Z,2.60
2019-05-25T20:38:04.679Z,3.00
2019-05-25T20:40:31.751Z,3.07
2019-05-25T20:42:59.143Z,2.90
2019-05-25T20:45:26.243Z,2.80
2019-05-25T20:47:52.895Z,3.00
2019-05-25T20:50:19.601Z,2.67
2019-05-25T20:52:46.671Z,2.80
2019-05-25T20:55:13.663Z,2.80
2019-05-25T20:57:41.032Z,2.27
2019-05-25T21:00:09.675Z,2.57
2019-05-25T21:02:37.047Z,2.80
2019-05-25T21:05:04.064Z,2.77
2019-05-25T21:07:30.811Z,2.60
2019-05-25T21:09:57.439Z,2.07
2019-05-25T21:12:24.530Z,2.60
2019-05-25T21:14:52.949Z,3.33
2019-05-25T21:17:19.595Z,2.60
2019-05-25T21:19:47.218Z,2.47
2019-05-25T21:22:15.343Z,2.60
2019-05-25T21:24:43.240Z,2.50
2019-05-25T21:27:10.259Z,2.20
2019-05-25T21:29:37.490Z,2.97
2019-05-25T21:32:04.532Z,2.30
2019-05-25T21:34:31.483Z,2.73
2019-05-25T21:36:58.495Z,3.30
2019-05-25T21:39:25.109Z,2.87
2019-05-25T21:41:52.631Z,2.90
2019-05-25T21:44:19.239Z,3.10
2019-05-25T21:46:46.888Z,2.53
2019-05-25T21:49:14.015Z,2.30
2019-05-25T21:51:41.771Z,2.20
2019-05-25T21:54:08.895Z,2.30
2019-05-25T21:56:36.147Z,2.23
2019-05-25T21:59:02.788Z,2.60
2019-05-25T22:01:29.449Z,2.20
2019-05-25T22:03:57.291Z,2.27
2019-05-25T22:06:24.905Z,2.57
2019-05-25T22:08:51.675Z,2.50
2019-05-25T22:11:18.775Z,2.40
2019-05-25T22:13:46.259Z,2.07
2019-05-25T22:16:13.447Z,3.27
2019-05-25T22:18:40.097Z,2.73
2019-05-25T22:21:07.133Z,3.13
2019-05-25T22:23:34.504Z,2.30
2019-05-25T22:26:01.943Z,2.47
2019-05-25T22:28:43.673Z,3.20
2019-05-25T22:30:57.992Z,2.20
2019-05-25T22:33:25.472Z,3.03
2019-05-25T22:36:03.524Z,3.13
2019-05-25T22:38:31.064Z,2.47
2019-05-25T22:40:58.055Z,2.60
2019-05-25T22:43:24.997Z,3.10
2019-05-25T22:45:53.367Z,2.63
2019-05-25T22:48:20.333Z,2.50
2019-05-25T22:50:49.054Z,3.63
2019-05-25T22:53:16.157Z,3.23
2019-05-25T22:55:44.685Z,2.90
2019-05-25T22:58:11.472Z,2.90
2019-05-25T23:00:39.147Z,3.30
2019-05-25T23:03:08.025Z,3.03
2019-05-25T23:05:34.711Z,2.70
2019-05-25T23:08:03.679Z,2.47
2019-05-25T23:10:30.635Z,2.50
2019-05-25T23:12:57.834Z,2.73
2019-05-25T23:15:25.019Z,2.33
2019-05-25T23:17:51.679Z,3.40
2019-05-25T23:20:19.662Z,2.80
2019-05-25T23:22:46.340Z,2.77
2019-05-25T23:25:13.008Z,3.10
2019-05-25T23:27:40.188Z,4.03
2019-05-25T23:30:07.211Z,3.70
2019-05-25T23:32:34.407Z,3.47
2019-05-25T23:35:01.108Z,3.40
2019-05-25T23:37:28.139Z,3.40
2019-05-25T23:39:55.254Z,2.50
2019-05-25T23:42:22.267Z,3.97
2019-05-25T23:44:48.927Z,3.10
2019-05-25T23:47:15.569Z,3.20
2019-05-25T23:49:42.492Z,3.53
2019-05-25T23:52:11.516Z,3.03
2019-05-25T23:54:39.365Z,3.20
2019-05-25T23:57:09.618Z,3.17
2019-05-25T23:59:36.267Z,3.57
